Main page
METAR-TAF:

METAR-TAF

Airports :

Davis Field

Muskogee, Oklahoma, United States

latitude: 35-39-25N, longitude: 095-21-35W, elevation: 607 ft

Current weather observation

The report was made 19 minutes ago, at 10:18 UTC
Wind 7 mph from the Southeast
Temperature 63°F
Humidity 82%
Pressure 29.80 in. Hg
Visibility: 10 miles
Broken clouds at a height of 2300 ft

METAR: KMKO 041018Z AUTO 13006KT 10SM BKN023 17/14 A2980 RMK AO2 T01670144

Time: 04:37 (10:37 UTC)


TAF: missing

Weather observations and forecasts of more than 4000 airports (METAR and TAF reports).

The available stations are represented by yellow and red dots on the map.

Hover mouse over dot to see the name of the station.

Then click to see weather observations and forecasts.

To change the map : click on the green buttons with a black cross to zoom in, on the green button with a dash to zoom out, or on the green arrows for adjacent maps.


METAR-TAF: